Weather at Korçë Airfield [CLOSED]

Public forecast

Using degrees Celsius for public forecast. Weather courtesy of forecast.io.

Closest aviation weather report (METAR) to Korçë Airfield

Closest report is Ohrid St. Paul the Apostle Airport, 31.7 nm (58.7 km) N.

2024/05/20 06:50 (retrieved 28 minutes ago)

LWOH 200650Z VRB02KT 9999 FEW019 BKN039 19/16 Q1015

Closest aviation forecast (TAF) to Korçë Airfield

Closest forecast is Ohrid St. Paul the Apostle Airport, 31.7 nm (58.7 km) N.

2024/05/20 06:27 (retrieved 51 minutes ago)

TAF TAF LWOH 200524Z 2006/2106 VRB02KT 9999 SCT035 PROB30 TEMPO 2012/2018 VRB15KT TSRA FEW030CB BKN040